Time;durP1;ratioP1;P1;durP2;ratioP2;P2;SDS_P1;SDS_P2;PMS_P1;PMS_P2;Temp;Humidity;BMP_temperature;BMP_pressure;BME280_temperature;BME280_humidity;BME280_pressure;Samples;Min_cycle;Max_cycle;Signal;HPM_P1;HPM_P2
2023/08/20 00:02:26;;;;;;;2.67;1.45;;;;;;;22.05;85.06;99954.56;5093686;28;19930;-62
2023/08/20 00:04:58;;;;;;;2.00;1.45;;;;;;;22.08;85.10;99949.19;5093732;28;20040;-62
2023/08/20 00:07:28;;;;;;;2.10;1.50;;;;;;;22.13;84.92;99956.78;5093777;28;20098;-63
2023/08/20 00:09:56;;;;;;;;;;;;;;;22.14;84.92;99954.16;5094186;28;20629;-63
2023/08/20 00:12:26;;;;;;;2.78;2.25;;;;;;;22.13;84.82;99962.00;5093526;28;19920;-63
2023/08/20 00:14:58;;;;;;;1.83;1.38;;;;;;;22.07;84.91;99963.13;5093575;28;20054;-63
2023/08/20 00:17:28;;;;;;;2.10;1.52;;;;;;;22.01;84.75;99955.56;5093578;28;20043;-62
2023/08/20 00:19:57;;;;;;;2.50;1.67;;;;;;;21.93;84.71;99957.69;5093527;28;20044;-63
2023/08/20 00:22:27;;;;;;;2.13;1.92;;;;;;;21.89;84.93;99949.16;5093657;28;20044;-62
2023/08/20 00:24:57;;;;;;;2.63;2.00;;;;;;;21.89;85.07;99951.75;5093559;28;20044;-62
2023/08/20 00:27:26;;;;;;;1.65;1.45;;;;;;;21.93;84.92;99944.69;5093464;28;20050;-62
2023/08/20 00:29:56;;;;;;;3.08;1.55;;;;;;;21.86;84.84;99951.03;5093303;28;20040;-62
2023/08/20 00:32:25;;;;;;;1.50;1.23;;;;;;;21.75;85.22;99945.41;5093444;28;20048;-62
2023/08/20 00:34:54;;;;;;;2.20;1.65;;;;;;;21.61;85.39;99942.53;5092613;28;20040;-62
2023/08/20 00:37:23;;;;;;;3.83;1.40;;;;;;;21.57;85.52;99946.19;5093353;28;20123;-63
2023/08/20 00:39:52;;;;;;;2.38;1.52;;;;;;;21.52;85.74;99938.59;5109093;28;20036;-63
2023/08/20 00:42:21;;;;;;;0.95;0.93;;;;;;;21.50;85.91;99939.56;5093378;28;20046;-62
2023/08/20 00:44:50;;;;;;;2.70;1.52;;;;;;;21.48;85.94;99938.75;5093577;28;20048;-61
2023/08/20 00:47:21;;;;;;;2.05;1.50;;;;;;;21.49;86.27;99943.06;5109361;28;20044;-63
2023/08/20 00:49:50;;;;;;;1.13;1.02;;;;;;;21.48;86.38;99946.53;5092449;28;20127;-63
2023/08/20 00:52:21;;;;;;;1.58;1.45;;;;;;;21.45;86.43;99946.69;5093175;28;20046;-62
2023/08/20 00:54:51;;;;;;;2.72;1.48;;;;;;;21.38;86.92;99941.72;5092314;28;20398;-62
2023/08/20 00:57:23;;;;;;;2.08;1.42;;;;;;;21.42;87.07;99939.00;5109225;28;20113;-62
2023/08/20 00:59:52;;;;;;;1.20;1.13;;;;;;;21.45;87.23;99941.50;5093193;28;20071;-62
2023/08/20 01:02:23;;;;;;;2.05;1.50;;;;;;;21.45;87.45;99941.50;5095413;28;20117;-62
2023/08/20 01:04:52;;;;;;;5.53;3.10;;;;;;;21.48;87.49;99943.94;5097185;28;20494;-62
2023/08/20 01:07:31;;;;;;;4.93;2.85;;;;;;;21.51;87.49;99952.47;5097154;28;20063;-63
2023/08/20 01:10:09;;;;;;;2.05;1.27;;;;;;;21.47;87.30;99944.88;5112801;28;20040;-62
2023/08/20 01:12:40;;;;;;;1.55;1.33;;;;;;;21.48;87.36;99952.59;5095606;28;20059;-62
2023/08/20 01:15:13;;;;;;;2.10;1.70;;;;;;;21.51;87.73;99949.03;5095534;28;20497;-62
2023/08/20 01:17:47;;;;;;;3.95;2.40;;;;;;;21.50;87.78;99952.53;5096683;28;20457;-62
2023/08/20 01:20:16;;;;;;;2.00;1.55;;;;;;;21.48;88.20;99952.59;5097092;28;20502;-62
2023/08/20 01:23:17;;;;;;;2.42;1.58;;;;;;;21.49;87.79;99956.03;5096622;28;20044;-62
2023/08/20 01:26:04;;;;;;;0.85;0.82;;;;;;;21.46;87.90;99958.75;5095175;28;20178;-63
2023/08/20 01:28:35;;;;;;;1.33;1.23;;;;;;;21.48;88.43;99962.97;5096795;28;20048;-62
2023/08/20 01:31:05;;;;;;;1.23;1.08;;;;;;;21.47;88.18;99960.44;5096388;28;20097;-62
2023/08/20 01:33:34;;;;;;;2.75;1.23;;;;;;;21.51;88.08;99967.19;5095195;28;20040;-63
2023/08/20 01:36:09;;;;;;;3.05;2.17;;;;;;;21.49;87.97;99954.28;5096493;28;20386;-62
2023/08/20 01:38:39;;;;;;;1.63;1.38;;;;;;;21.48;87.85;99962.97;5096471;28;20052;-63
2023/08/20 01:41:08;;;;;;;1.30;1.20;;;;;;;21.48;88.00;99952.59;5095213;28;20090;-63
2023/08/20 01:43:38;;;;;;;1.65;1.30;;;;;;;21.53;87.83;99952.41;5094986;28;20072;-63
2023/08/20 01:46:09;;;;;;;1.52;1.42;;;;;;;21.54;87.73;99957.53;5096421;28;20052;-63
2023/08/20 01:48:38;;;;;;;2.35;2.15;;;;;;;21.52;87.67;99958.53;5095931;28;20051;-62
2023/08/20 01:51:08;;;;;;;1.50;1.38;;;;;;;21.48;87.83;99951.72;5094753;28;20049;-61
2023/08/20 01:53:37;;;;;;;1.40;1.30;;;;;;;21.48;87.90;99959.53;5094939;28;20424;-63
2023/08/20 01:56:12;;;;;;;1.55;1.45;;;;;;;21.49;87.86;99951.69;5094657;28;20039;-62
2023/08/20 01:58:42;;;;;;;5.53;2.83;;;;;;;21.45;87.63;99949.28;5096222;28;20056;-62
2023/08/20 02:01:12;;;;;;;1.33;1.13;;;;;;;21.45;87.84;99951.88;5094709;28;20047;-62
2023/08/20 02:03:41;;;;;;;5.93;2.42;;;;;;;21.47;87.42;99953.50;5095791;28;20134;-62
2023/08/20 02:06:10;;;;;;;2.65;1.55;;;;;;;21.49;87.76;99950.84;5094717;28;20490;-62
2023/08/20 02:08:39;;;;;;;2.33;1.75;;;;;;;21.49;87.77;99949.09;5094806;28;20052;-63
2023/08/20 02:11:08;;;;;;;2.47;2.05;;;;;;;21.49;87.62;99951.69;5096711;28;20397;-63
2023/08/20 02:13:37;;;;;;;1.60;1.30;;;;;;;21.48;87.59;99951.72;5095085;28;20516;-63
2023/08/20 02:16:07;;;;;;;;;;;;;;;21.51;87.57;99956.81;5096021;28;20048;-63
2023/08/20 02:18:37;;;;;;;4.57;1.88;;;;;;;21.51;87.41;99956.81;5095777;28;20019;-62
2023/08/20 02:21:06;;;;;;;1.85;1.55;;;;;;;21.45;87.59;99963.09;5095791;28;20040;-63
2023/08/20 02:23:35;;;;;;;1.92;1.50;;;;;;;21.41;87.82;99965.88;5095361;28;20490;-62
2023/08/20 02:26:07;;;;;;;7.82;2.30;;;;;;;21.38;87.86;99962.50;5095355;28;20101;-62
2023/08/20 02:28:36;;;;;;;1.70;1.48;;;;;;;21.36;87.94;99964.31;5094232;28;20060;-63
2023/08/20 02:31:07;;;;;;;3.13;1.70;;;;;;;21.37;87.98;99965.19;5095334;28;20128;-63
2023/08/20 02:33:36;;;;;;;2.58;2.10;;;;;;;21.41;87.92;99965.88;5094116;28;20062;-63
2023/08/20 02:36:05;;;;;;;3.13;2.10;;;;;;;21.44;88.03;99957.97;5095148;28;20043;-63
2023/08/20 02:38:35;;;;;;;1.83;1.63;;;;;;;21.42;87.75;99952.00;5095278;28;20040;-63
2023/08/20 02:41:04;;;;;;;1.40;1.30;;;;;;;21.43;87.90;99953.69;5095002;28;20039;-63
2023/08/20 02:43:33;;;;;;;14.57;3.22;;;;;;;21.43;87.81;99943.31;5093789;28;20040;-63
2023/08/20 02:46:02;;;;;;;1.92;1.45;;;;;;;21.47;87.85;99944.88;5094097;28;20076;-63
2023/08/20 02:48:33;;;;;;;3.00;2.38;;;;;;;21.42;87.58;99937.28;5094975;28;20040;-63
2023/08/20 02:51:02;;;;;;;1.67;1.45;;;;;;;21.43;87.83;99945.91;5094715;28;20046;-62
2023/08/20 02:53:31;;;;;;;2.20;1.65;;;;;;;21.42;87.55;99952.00;5093603;28;20063;-63
2023/08/20 02:56:00;;;;;;;;;;;;;;;21.38;87.55;99946.91;5095131;28;20048;-63
2023/08/20 02:58:29;;;;;;;1.23;1.13;;;;;;;21.38;87.61;99952.13;5094694;28;19923;-62
2023/08/20 03:00:59;;;;;;;3.53;2.33;;;;;;;21.38;87.83;99947.84;5093489;28;20055;-63
2023/08/20 03:03:28;;;;;;;2.42;1.58;;;;;;;21.35;87.64;99941.84;5093484;28;20375;-62
2023/08/20 03:06:00;;;;;;;1.63;1.52;;;;;;;21.36;87.65;99958.28;5094661;28;20106;-62
2023/08/20 03:08:29;;;;;;;2.92;2.03;;;;;;;21.33;87.70;99948.84;5094585;28;20055;-63
2023/08/20 03:10:58;;;;;;;1.52;1.42;;;;;;;21.31;87.56;99958.47;5093188;28;20040;-62
2023/08/20 03:13:27;;;;;;;1.55;1.23;;;;;;;21.30;87.63;99954.19;5094401;28;20052;-63
2023/08/20 03:15:56;;;;;;;3.20;1.77;;;;;;;21.26;87.54;99963.00;5094612;28;20040;-62
2023/08/20 03:18:25;;;;;;;1.88;1.33;;;;;;;21.24;87.66;99959.63;5094429;28;20056;-63
2023/08/20 03:20:56;;;;;;;2.13;1.80;;;;;;;21.25;87.54;99963.91;5094341;28;20441;-62
2023/08/20 03:23:28;;;;;;;1.48;1.27;;;;;;;21.25;87.61;99966.50;5094589;28;20040;-63
2023/08/20 03:25:59;;;;;;;1.40;1.30;;;;;;;21.21;87.78;99962.31;5094434;28;20054;-63
2023/08/20 03:28:28;;;;;;;2.35;1.15;;;;;;;21.20;87.67;99954.59;5094514;28;20043;-63
2023/08/20 03:31:02;;;;;;;4.15;1.75;;;;;;;21.19;87.70;99966.75;5094127;28;20070;-62
2023/08/20 03:33:35;;;;;;;1.42;1.33;;;;;;;21.16;87.74;99968.63;5094751;28;20116;-62
2023/08/20 03:36:05;;;;;;;2.65;1.83;;;;;;;21.17;87.88;99963.38;5092827;28;20063;-63
2023/08/20 03:38:35;;;;;;;2.72;2.13;;;;;;;21.19;87.80;99971.94;5092823;28;20044;-63
2023/08/20 03:41:06;;;;;;;1.42;1.27;;;;;;;21.18;87.80;99967.66;5093965;28;20068;-63
2023/08/20 03:43:37;;;;;;;1.60;1.48;;;;;;;21.17;87.71;99968.56;5094305;28;20516;-63
2023/08/20 03:46:06;;;;;;;1.38;1.15;;;;;;;21.16;87.65;99977.22;5093044;28;20040;-63
2023/08/20 03:48:35;;;;;;;1.40;1.30;;;;;;;21.10;87.60;99972.28;5093687;28;20041;-63
2023/08/20 03:51:05;;;;;;;2.78;2.20;;;;;;;21.08;88.14;99971.50;5093801;28;20044;-62
2023/08/20 03:53:36;;;;;;;3.03;1.70;;;;;;;21.11;88.02;99976.59;5092715;28;20123;-63
2023/08/20 03:56:05;;;;;;;6.82;2.17;;;;;;;21.13;88.26;99979.97;5092737;28;20089;-63
2023/08/20 03:58:34;;;;;;;1.17;1.08;;;;;;;21.14;88.07;99983.44;5094361;28;20386;-63
2023/08/20 04:01:03;;;;;;;;;;;;;;;21.13;88.02;99981.72;5094017;28;20040;-62
2023/08/20 04:03:33;;;;;;;2.10;1.70;;;;;;;21.10;87.96;99985.28;5092541;28;19920;-63
2023/08/20 04:06:01;;;;;;;;;;;;;;;21.10;87.91;99981.81;5094040;28;20127;-63
2023/08/20 04:08:30;;;;;;;1.20;1.13;;;;;;;21.14;87.93;99984.25;5092711;28;19924;-63
2023/08/20 04:11:02;;;;;;;1.58;1.48;;;;;;;21.12;87.91;99985.22;5109233;28;20032;-62
2023/08/20 04:13:31;;;;;;;1.80;1.40;;;;;;;21.08;87.74;99981.91;5092418;28;20071;-63
2023/08/20 04:16:00;;;;;;;3.65;2.63;;;;;;;21.10;87.75;99982.69;5092363;28;20558;-63
2023/08/20 04:18:29;;;;;;;1.55;1.25;;;;;;;21.05;87.78;99976.81;5093569;28;20045;-63
2023/08/20 04:20:58;;;;;;;2.58;1.77;;;;;;;21.08;87.92;99974.13;5092368;28;20040;-63
2023/08/20 04:23:27;;;;;;;1.60;1.35;;;;;;;21.09;87.86;99983.56;5092298;28;20047;-63
2023/08/20 04:25:56;;;;;;;1.60;1.50;;;;;;;21.12;88.07;99985.22;5093504;28;20056;-63
2023/08/20 04:28:29;;;;;;;2.15;1.52;;;;;;;21.15;87.96;99980.75;5092305;28;20044;-63
2023/08/20 04:31:00;;;;;;;1.67;1.58;;;;;;;21.16;87.88;99982.44;5092409;28;20470;-63
2023/08/20 04:33:38;;;;;;;1.48;1.38;;;;;;;21.20;88.27;99983.16;5092250;28;20051;-63
2023/08/20 04:36:08;;;;;;;5.03;1.83;;;;;;;21.25;87.99;99986.44;5092677;28;20124;-63
2023/08/20 04:38:37;;;;;;;2.33;1.58;;;;;;;21.25;87.85;99982.09;5096528;28;20127;-63
2023/08/20 04:41:06;;;;;;;2.75;1.45;;;;;;;21.30;87.75;99980.16;5096155;28;20090;-63
2023/08/20 04:43:37;;;;;;;2.58;1.50;;;;;;;21.36;87.72;99979.91;5096685;28;20398;-63
2023/08/20 04:46:07;;;;;;;2.28;1.58;;;;;;;21.38;87.70;99983.28;5113158;28;20062;-63
2023/08/20 04:48:35;;;;;;;7.95;1.75;;;;;;;21.38;87.51;99979.00;5097261;28;20048;-63
2023/08/20 04:51:06;;;;;;;2.05;1.40;;;;;;;21.35;87.58;99978.19;5095927;28;20127;-63
2023/08/20 04:53:36;;;;;;;0.80;0.80;;;;;;;21.34;87.54;99976.53;5096127;28;20440;-63
2023/08/20 04:56:05;;;;;;;3.13;2.33;;;;;;;21.38;87.75;99971.22;5096944;28;20036;-63
2023/08/20 04:58:34;;;;;;;4.15;2.35;;;;;;;21.46;87.63;99979.53;5096095;28;20036;-63
2023/08/20 05:01:05;;;;;;;2.65;1.90;;;;;;;21.46;87.51;99979.53;5095732;28;20055;-64
2023/08/20 05:03:36;;;;;;;2.38;2.17;;;;;;;21.46;87.44;99987.31;5096910;28;20101;-63
2023/08/20 05:06:05;;;;;;;4.68;2.22;;;;;;;21.52;87.21;99980.16;5095660;28;20036;-63
2023/08/20 05:08:34;;;;;;;1.20;1.13;;;;;;;21.56;87.20;99986.91;5096177;28;20089;-63
2023/08/20 05:11:03;;;;;;;1.73;1.55;;;;;;;21.62;87.16;99991.00;5095487;28;20040;-63
2023/08/20 05:13:32;;;;;;;4.00;2.03;;;;;;;21.72;87.13;99994.91;5095765;28;20448;-63
2023/08/20 05:16:01;;;;;;;4.18;1.95;;;;;;;21.77;87.12;99995.56;5095554;28;20051;-64
2023/08/20 05:18:32;;;;;;;4.57;2.60;;;;;;;21.83;87.03;99992.72;5095459;28;20032;-64
2023/08/20 05:21:02;;;;;;;1.75;1.35;;;;;;;21.91;87.04;99988.06;5097194;28;20091;-64
2023/08/20 05:23:31;;;;;;;1.88;1.73;;;;;;;22.02;86.75;99998.88;5096526;28;20375;-63
2023/08/20 05:26:00;;;;;;;2.10;1.58;;;;;;;22.07;86.37;99996.94;5096488;28;20037;-63
2023/08/20 05:28:29;;;;;;;1.45;1.35;;;;;;;22.14;86.62;100000.94;5095845;28;20032;-63
2023/08/20 05:30:58;;;;;;;2.42;2.17;;;;;;;22.24;86.47;100006.59;5096491;28;20055;-63
2023/08/20 05:33:27;;;;;;;1.58;1.48;;;;;;;22.33;86.33;100012.25;5095025;28;20036;-63
2023/08/20 05:35:58;;;;;;;;;;;;;;;22.40;86.02;100000.66;5095567;28;20119;-64
2023/08/20 05:38:28;;;;;;;3.30;1.90;;;;;;;22.50;85.87;100012.38;5096319;28;19920;-64
2023/08/20 05:40:57;;;;;;;3.40;1.92;;;;;;;22.61;85.69;100012.75;5095051;28;20036;-64
2023/08/20 05:43:25;;;;;;;3.33;1.42;;;;;;;22.76;85.52;100016.44;5096417;28;20401;-63
2023/08/20 05:45:54;;;;;;;2.10;1.27;;;;;;;22.84;85.33;100018.69;5094924;28;20040;-63
2023/08/20 05:48:25;;;;;;;3.53;1.10;;;;;;;22.91;84.92;100017.50;5094762;28;20050;-64
2023/08/20 05:50:54;;;;;;;1.40;1.30;;;;;;;22.93;84.46;100016.53;5096035;28;20419;-63
2023/08/20 05:53:24;;;;;;;3.17;1.73;;;;;;;22.97;84.30;100025.00;5095898;28;20135;-65
2023/08/20 05:55:54;;;;;;;2.28;1.30;;;;;;;23.05;83.98;100022.91;5096005;28;20075;-63
2023/08/20 05:58:23;;;;;;;1.40;1.25;;;;;;;23.20;83.52;100022.22;5094749;28;20044;-63
2023/08/20 06:00:51;;;;;;;1.90;1.45;;;;;;;23.32;83.28;100024.25;5094664;28;20067;-63
2023/08/20 06:03:21;;;;;;;1.92;1.52;;;;;;;23.42;83.12;100022.91;5094887;28;20043;-63
2023/08/20 06:05:50;;;;;;;1.95;1.45;;;;;;;23.48;82.60;100035.66;5096044;28;20097;-63
2023/08/20 06:08:19;;;;;;;2.03;1.60;;;;;;;23.46;82.17;100027.06;5095987;28;20040;-63
2023/08/20 06:10:49;;;;;;;1.65;1.40;;;;;;;23.58;81.82;100034.31;5095641;28;20044;-63
2023/08/20 06:13:18;;;;;;;1.85;1.50;;;;;;;23.63;81.44;100032.31;5095519;28;20040;-64
2023/08/20 06:15:47;;;;;;;2.15;1.58;;;;;;;23.71;80.88;100030.16;5095875;28;20130;-64
2023/08/20 06:18:16;;;;;;;2.33;2.05;;;;;;;23.72;80.76;100034.47;5095412;28;20032;-64
2023/08/20 06:20:45;;;;;;;1.48;1.38;;;;;;;23.81;80.32;100030.56;5096031;28;20077;-63
2023/08/20 06:23:14;;;;;;;1.40;1.30;;;;;;;23.87;80.13;100033.69;5095645;28;20052;-64
2023/08/20 06:26:05;;;;;;;1.60;1.38;;;;;;;23.89;79.72;100031.88;5095362;28;20048;-64
2023/08/20 06:28:34;;;;;;;1.75;1.38;;;;;;;24.02;79.73;100031.28;5095641;28;20052;-61
2023/08/20 06:31:03;;;;;;;1.70;1.60;;;;;;;24.15;79.57;100029.75;5095164;28;20040;-63
2023/08/20 06:33:32;;;;;;;2.30;1.92;;;;;;;24.29;79.29;100027.28;5095415;28;20123;-63
2023/08/20 06:36:01;;;;;;;1.48;1.20;;;;;;;24.41;79.10;100031.88;5095408;28;20229;-63
2023/08/20 06:38:30;;;;;;;1.75;1.45;;;;;;;24.49;78.59;100027.09;5095372;28;20064;-64
2023/08/20 06:40:59;;;;;;;2.40;1.73;;;;;;;24.55;77.60;100029.38;5095342;28;20436;-64
2023/08/20 06:43:29;;;;;;;2.22;1.85;;;;;;;24.66;76.93;100032.28;5094936;28;20046;-64
2023/08/20 06:45:58;;;;;;;2.53;1.52;;;;;;;24.67;76.45;100033.16;5095266;28;20482;-64
2023/08/20 06:48:27;;;;;;;2.22;1.52;;;;;;;24.72;75.55;100037.19;5094583;28;20047;-63
2023/08/20 06:50:57;;;;;;;4.38;2.20;;;;;;;24.80;75.33;100032.44;5095167;28;20036;-63
2023/08/20 06:53:26;;;;;;;2.35;1.40;;;;;;;24.88;75.31;100035.50;5093536;28;20557;-65
2023/08/20 06:55:55;;;;;;;1.85;1.23;;;;;;;24.95;74.53;100039.47;5094441;28;20127;-63
2023/08/20 06:58:24;;;;;;;;;;;;;;;25.01;74.50;100043.50;5095012;28;20040;-63
2023/08/20 07:00:54;;;;;;;1.10;1.00;;;;;;;25.07;74.23;100038.78;5094287;28;20406;-63
2023/08/20 07:03:23;;;;;;;2.42;1.55;;;;;;;25.20;73.84;100045.03;5085842;28;20052;-64
2023/08/20 07:05:52;;;;;;;1.33;1.23;;;;;;;25.32;73.30;100038.28;5091802;28;20040;-64
2023/08/20 07:08:21;;;;;;;2.15;1.73;;;;;;;25.44;72.66;100039.34;5094840;28;20122;-64
2023/08/20 07:10:50;;;;;;;1.23;1.05;;;;;;;25.51;73.05;100043.34;5094405;28;20040;-63
2023/08/20 07:13:18;;;;;;;2.20;2.00;;;;;;;25.63;72.62;100040.88;5094402;28;20065;-63
2023/08/20 07:15:47;;;;;;;4.50;2.53;;;;;;;25.70;72.30;100044.00;5094660;28;20039;-64
2023/08/20 07:18:18;;;;;;;1.42;1.08;;;;;;;25.78;71.61;100047.88;5094858;28;20043;-63
2023/08/20 07:20:47;;;;;;;1.83;1.60;;;;;;;25.85;71.46;100049.19;5094335;28;20051;-64
2023/08/20 07:23:15;;;;;;;1.67;1.20;;;;;;;25.96;71.07;100040.75;5094307;28;20089;-63
2023/08/20 07:25:46;;;;;;;3.17;1.95;;;;;;;26.05;70.44;100040.22;5094267;28;20093;-64
2023/08/20 07:28:20;;;;;;;1.85;1.60;;;;;;;26.14;70.26;100044.94;5094402;28;20040;-64
2023/08/20 07:30:49;;;;;;;1.27;1.17;;;;;;;26.20;69.89;100039.31;5094196;28;20494;-63
2023/08/20 07:33:20;;;;;;;2.03;1.60;;;;;;;26.26;69.69;100038.97;5094332;28;20051;-64
2023/08/20 07:35:48;;;;;;;1.50;1.38;;;;;;;26.39;69.32;100039.94;5094076;28;20048;-63
2023/08/20 07:38:17;;;;;;;0.88;0.85;;;;;;;26.51;69.22;100039.16;5094007;28;20059;-63
2023/08/20 07:40:46;;;;;;;2.10;1.50;;;;;;;26.62;69.45;100038.53;5093980;28;20375;-64
2023/08/20 07:43:15;;;;;;;1.17;1.08;;;;;;;26.75;68.94;100041.25;5092831;28;20054;-64
2023/08/20 07:45:44;;;;;;;0.85;0.80;;;;;;;26.80;68.44;100039.22;5092731;28;20050;-63
2023/08/20 07:48:13;;;;;;;1.42;1.33;;;;;;;26.90;68.79;100029.88;5093925;28;20501;-63
2023/08/20 07:50:44;;;;;;;1.75;1.52;;;;;;;27.01;68.54;100041.38;5092258;28;20101;-63
2023/08/20 07:53:12;;;;;;;2.13;1.73;;;;;;;27.09;67.94;100040.88;5085074;28;20495;-63
2023/08/20 07:55:42;;;;;;;1.35;1.20;;;;;;;27.16;68.22;100036.94;5084892;28;20131;-63
2023/08/20 07:58:10;;;;;;;;;;;;;;;27.32;67.85;100032.41;5080198;28;20107;-67
2023/08/20 08:00:39;;;;;;;0.82;0.82;;;;;;;27.38;66.75;100029.41;5090469;28;19927;-66
2023/08/20 08:03:09;;;;;;;0.95;0.80;;;;;;;27.43;66.19;100026.47;5088254;28;20055;-64
2023/08/20 08:05:38;;;;;;;1.48;1.08;;;;;;;27.52;66.35;100037.22;5093656;28;20058;-64
2023/08/20 08:08:08;;;;;;;1.60;0.93;;;;;;;27.55;65.93;100029.16;5094252;28;20040;-64
2023/08/20 08:10:37;;;;;;;1.35;1.02;;;;;;;27.60;65.96;100032.31;5093208;28;20101;-63
2023/08/20 08:13:06;;;;;;;2.05;1.70;;;;;;;27.71;65.65;100029.88;5094098;28;20378;-64
2023/08/20 08:15:37;;;;;;;1.27;1.13;;;;;;;27.85;66.05;100027.16;5093815;28;20383;-64
2023/08/20 08:18:06;;;;;;;;;;;;;;;27.95;65.50;100031.81;5094154;28;20099;-64
2023/08/20 08:20:35;;;;;;;2.00;1.33;;;;;;;28.07;65.84;100025.75;5093595;28;20018;-64
2023/08/20 08:23:04;;;;;;;2.50;1.95;;;;;;;28.21;65.83;100030.91;5093552;28;20032;-64
2023/08/20 08:25:35;;;;;;;1.40;1.08;;;;;;;28.28;64.72;100029.56;5093478;28;20048;-64
2023/08/20 08:28:04;;;;;;;2.22;1.70;;;;;;;28.40;64.48;100033.97;5093390;28;20506;-64
2023/08/20 08:30:33;;;;;;;4.68;1.50;;;;;;;28.53;64.67;100026.91;5093428;28;20057;-64
2023/08/20 08:33:02;;;;;;;1.95;1.00;;;;;;;28.66;64.22;100019.91;5093298;28;20044;-64
2023/08/20 08:35:31;;;;;;;1.17;1.08;;;;;;;28.70;63.78;100031.06;5093347;28;20450;-64
2023/08/20 08:38:00;;;;;;;1.25;1.15;;;;;;;28.74;62.66;100028.13;5092369;28;20078;-63
2023/08/20 08:40:30;;;;;;;2.30;1.73;;;;;;;28.79;62.79;100026.00;5093276;28;20044;-63
2023/08/20 08:43:03;;;;;;;1.40;1.00;;;;;;;28.87;62.68;100028.91;5093426;28;20044;-63
2023/08/20 08:45:34;;;;;;;1.27;1.08;;;;;;;28.97;62.74;100024.69;5093253;28;20044;-63
2023/08/20 08:48:04;;;;;;;1.30;1.20;;;;;;;29.12;62.69;100018.34;5093358;28;20044;-63
2023/08/20 08:50:33;;;;;;;1.98;1.67;;;;;;;29.20;61.24;100016.03;5093534;28;20139;-64
2023/08/20 08:53:02;;;;;;;4.82;1.80;;;;;;;29.30;60.26;100015.38;5083872;28;20449;-64
2023/08/20 08:55:31;;;;;;;;;;;;;;;29.35;60.30;100013.22;5093741;28;20398;-64
2023/08/20 08:58:01;;;;;;;1.20;1.10;;;;;;;29.38;60.04;100013.88;5092931;28;20425;-63
2023/08/20 09:00:32;;;;;;;14.05;1.73;;;;;;;29.49;59.63;100015.72;5093411;28;20159;-63
2023/08/20 09:03:01;;;;;;;1.20;1.10;;;;;;;29.63;59.43;100008.50;5093410;28;20054;-64
2023/08/20 09:05:30;;;;;;;12.82;3.10;;;;;;;29.80;58.42;100002.81;5093195;28;20051;-64
2023/08/20 09:07:59;;;;;;;1.65;1.13;;;;;;;29.90;58.40;100013.50;5093060;28;20047;-64
2023/08/20 09:10:28;;;;;;;1.00;0.90;;;;;;;30.07;57.69;100013.06;5093331;28;20111;-64
2023/08/20 09:12:57;;;;;;;1.17;1.08;;;;;;;30.13;57.23;100015.25;5093013;28;20040;-64
2023/08/20 09:15:35;;;;;;;1.08;0.98;;;;;;;30.20;56.78;100011.19;5093444;28;20126;-63
2023/08/20 09:18:04;;;;;;;0.70;0.70;;;;;;;30.40;58.39;100015.78;5093344;28;20508;-63
2023/08/20 09:20:36;;;;;;;;;;;;;;;30.52;57.98;100014.84;5093395;28;20040;-64
2023/08/20 09:23:05;;;;;;;2.17;1.00;;;;;;;30.62;56.63;100014.16;5095035;28;20266;-64
2023/08/20 09:25:33;;;;;;;;;;;;;;;30.69;57.00;100017.97;5096962;28;20044;-64
2023/08/20 09:28:04;;;;;;;1.23;0.90;;;;;;;30.74;56.44;100018.47;5096707;28;20321;-63
2023/08/20 09:30:35;;;;;;;3.28;2.17;;;;;;;30.85;57.06;100015.81;5097135;28;20105;-64
2023/08/20 09:33:05;;;;;;;1.02;0.95;;;;;;;30.92;56.27;100019.66;5095462;28;20054;-64
2023/08/20 09:35:34;;;;;;;1.75;1.58;;;;;;;30.95;55.79;100019.44;5096341;28;20498;-64
2023/08/20 09:38:05;;;;;;;1.33;1.17;;;;;;;31.05;55.27;100017.75;5096732;28;20042;-63
2023/08/20 09:40:35;;;;;;;2.85;1.77;;;;;;;31.10;54.64;100021.66;5096535;28;20513;-64
2023/08/20 09:43:07;;;;;;;12.15;1.88;;;;;;;31.23;54.13;100015.41;5096796;28;20390;-63
2023/08/20 09:45:39;;;;;;;15.55;1.60;;;;;;;31.32;54.49;100014.66;5096062;28;20044;-64
2023/08/20 09:48:10;;;;;;;1.25;1.08;;;;;;;31.38;53.86;100007.09;5089176;28;20052;-64
2023/08/20 09:50:41;;;;;;;0.90;0.90;;;;;;;31.51;54.13;100015.72;5078780;28;20126;-64
2023/08/20 09:53:22;;;;;;;1.52;1.42;;;;;;;31.64;53.09;100010.28;5075814;28;20059;-64
2023/08/20 09:55:53;;;;;;;1.20;1.10;;;;;;;31.59;51.44;100005.38;5075759;28;20479;-63
2023/08/20 09:58:25;;;;;;;1.90;1.42;;;;;;;31.69;51.30;100008.94;5076178;28;20047;-64
2023/08/20 10:00:57;;;;;;;2.15;1.70;;;;;;;31.65;51.34;100004.84;5075766;28;20040;-63
2023/08/20 10:03:26;;;;;;;2.72;1.52;;;;;;;31.56;51.06;100008.25;5079607;28;20101;-63
2023/08/20 10:05:58;;;;;;;2.03;1.38;;;;;;;31.62;51.69;100002.50;5084142;28;20396;-63
2023/08/20 10:08:28;;;;;;;1.60;1.38;;;;;;;31.70;51.73;100000.03;5085124;28;20032;-63
2023/08/20 10:10:57;;;;;;;1.13;0.90;;;;;;;31.86;51.35;99998.75;5086022;28;20036;-64
2023/08/20 10:13:26;;;;;;;2.13;1.33;;;;;;;31.91;50.80;100000.06;5087967;28;20036;-63
2023/08/20 10:15:56;;;;;;;;;;;;;;;32.02;51.06;99993.91;5095836;28;20425;-64
2023/08/20 10:18:27;;;;;;;1.77;1.30;;;;;;;32.05;50.46;99994.50;5094450;28;19920;-63
2023/08/20 10:21:00;;;;;;;1.45;1.27;;;;;;;32.10;50.18;99999.38;5095801;28;20402;-63
2023/08/20 10:23:33;;;;;;;1.52;1.42;;;;;;;32.07;49.97;99994.34;5094453;28;20043;-63
2023/08/20 10:26:08;;;;;;;0.80;0.70;;;;;;;32.08;50.24;99998.69;5094529;28;20044;-63
2023/08/20 10:28:38;;;;;;;0.82;0.82;;;;;;;32.13;50.12;99996.47;5095313;28;20059;-64
2023/08/20 10:31:12;;;;;;;2.10;1.48;;;;;;;32.20;48.86;99987.06;5095261;28;20040;-64
2023/08/20 10:33:51;;;;;;;0.85;0.80;;;;;;;32.15;48.43;99995.38;5095175;28;20135;-64
2023/08/20 10:36:25;;;;;;;2.10;1.57;;;;;;;32.22;48.36;99991.25;5095203;28;20052;-64
2023/08/20 10:38:56;;;;;;;0.90;0.82;;;;;;;32.43;49.64;99985.91;5095145;28;20093;-64
2023/08/20 10:41:29;;;;;;;1.10;1.00;;;;;;;32.59;49.35;99983.66;5095300;28;20040;-63
2023/08/20 10:44:00;;;;;;;0.95;0.88;;;;;;;32.75;48.47;99991.94;5095349;28;20062;-63
2023/08/20 10:46:31;;;;;;;0.80;0.77;;;;;;;32.81;48.63;99988.75;5094980;28;20093;-63
2023/08/20 10:49:04;;;;;;;1.75;1.45;;;;;;;32.90;48.17;99990.56;5094854;28;20051;-64
2023/08/20 10:51:34;;;;;;;2.30;1.70;;;;;;;32.60;47.58;99987.97;5094804;28;20436;-64
2023/08/20 10:54:06;;;;;;;3.38;1.20;;;;;;;32.31;47.48;99986.97;5094745;28;20040;-64
2023/08/20 10:56:40;;;;;;;1.02;0.90;;;;;;;32.30;47.61;99982.63;5093831;28;20051;-64
2023/08/20 10:59:10;;;;;;;0.90;0.90;;;;;;;32.55;47.58;99982.25;5095440;28;20090;-64
2023/08/20 11:01:41;;;;;;;1.13;0.95;;;;;;;32.65;47.39;99982.28;5086423;28;20123;-63
2023/08/20 11:04:10;;;;;;;2.25;1.10;;;;;;;32.90;47.92;99974.69;5074255;28;20170;-63
2023/08/20 11:06:40;;;;;;;1.10;1.00;;;;;;;33.18;48.89;99973.13;5074282;28;20040;-63
2023/08/20 11:09:10;;;;;;;0.70;0.70;;;;;;;33.24;47.73;99974.38;5074540;28;20459;-64
2023/08/20 11:11:40;;;;;;;1.63;0.80;;;;;;;33.24;46.21;99969.91;5074498;28;20122;-64
2023/08/20 11:14:14;;;;;;;1.30;1.20;;;;;;;32.90;46.28;99979.97;5074424;28;20163;-63
2023/08/20 11:16:45;;;;;;;0.85;0.82;;;;;;;32.52;45.89;99979.84;5074460;28;20045;-64
2023/08/20 11:19:15;;;;;;;1.35;0.90;;;;;;;32.33;46.26;99972.66;5074122;28;20057;-64
2023/08/20 11:21:45;;;;;;;1.33;1.23;;;;;;;32.45;46.32;99974.25;5074091;28;20036;-63
2023/08/20 11:24:14;;;;;;;0.88;0.88;;;;;;;32.76;46.51;99975.06;5074031;28;20055;-63
2023/08/20 11:26:43;;;;;;;;;;;;;;;33.01;46.04;99973.75;5074618;28;20048;-63
2023/08/20 11:29:13;;;;;;;2.92;1.60;;;;;;;33.06;45.29;99972.41;5074266;28;19920;-64
2023/08/20 11:31:44;;;;;;;0.70;0.70;;;;;;;33.27;46.19;99968.81;5074272;28;20093;-64
2023/08/20 11:34:13;;;;;;;0.82;0.80;;;;;;;33.34;44.27;99969.91;5073942;28;20094;-63
2023/08/20 11:36:43;;;;;;;1.33;1.23;;;;;;;33.35;43.44;99966.31;5073650;28;20094;-64
2023/08/20 11:39:12;;;;;;;1.27;1.10;;;;;;;33.33;42.76;99968.25;5073930;28;20127;-63
2023/08/20 11:41:41;;;;;;;0.98;0.88;;;;;;;33.26;43.05;99967.16;5073721;28;20090;-63
2023/08/20 11:44:10;;;;;;;2.50;1.05;;;;;;;32.98;42.95;99974.88;5074165;28;20048;-64
2023/08/20 11:46:45;;;;;;;;;;;;;;;32.96;43.51;99976.81;5073691;28;20041;-64
2023/08/20 11:49:15;;;;;;;1.45;1.20;;;;;;;33.15;43.81;99962.81;5073562;28;19920;-64